Warning: Javascript must be enabled to use all the features on this page!


Page Loading - Please Wait...

* We've detected you're using a mobile device. Find our Next Generation Station Page here.
Click to hideNews Bulletins

Peak Streamflow for the Nation

USGS 14169000 LONG TOM RIVER NEAR ALVADORE, OR

Lane County, Oregon
Hydrologic Unit Code 17090003
Latitude  44°07'25", Longitude 123°17'55" NAD27
Drainage area 252  square miles
Gage datum 332.00 feet above NGVD29
Output formats
Table
Graph
Tab-separated file
peakfq (watstore) format
Reselect output format
Water
Year
Date Gage
Height
(feet)
Stream-
flow
(cfs)
1940 1940-02-08 13.69 4,360
1941 1941-01-20 13.26 2,970
1942 1942-01-15 13.16 2,3306
1943 1943-01-01 15.12 11,5006
1944 1943-11-14 5.466 2,0606
1945 1945-03-24 5.99 2,9006
1946 1946-02-08 6.22 3,0906
1947 1946-12-17 6.28 3,1906
1948 1948-01-12 6.42 3,6706
1949 1949-02-25 6.60 3,8706
1950 1950-02-01 7.33 4,5006
1951 1950-11-22 6.83 3,5106
1952 1952-02-05 7.14 3,7906
1953 1953-01-23 6.96 3,6206
1954 1954-02-06 7.57 4,1706
1955 1954-12-31 6.41 3,1606
1956 1955-12-26 13.97 10,4006
1957 1957-03-01 7.18 3,9406
1958 1957-12-30 7.47 4,1806
1959 1959-01-18 9.17 5,6006
1960 1960-03-10 7.32 3,9806
1961 1961-02-17 8.67 5,1506
1962 1962-03-28 7.60 4,1906
1963 1963-03-31 7.66 4,2406
1966 1966-01-11 9.62 6,2606
1967 1966-12-08 7.43 4,2906
1968 1968-01-17 6.88 3,7906
1969 1969-01-13 7.58 4,4206
1970 1969-12-23 7.32 4,1906
1971 1971-01-21 7.84 4,6606
1972 1972-02-02 7.32 4,1906
1973 1972-12-21 5.45 2,5006
1974 1974-01-23 8.782 5,5006
1975 1975-01-10 7.19 4,0706
1976 1976-01-14 7.25 4,1206
1977 1976-10-12 4.11 1,3506
1978 1977-12-18 7.17 4,0506
1979 1979-02-07 4.91 2,0106
1980 1980-01-18 7.27 4,1406
1981 1981-01-02 7.42 4,2706
1982 1981-12-26 8.07 4,8606
1983 1983-04-01 8.12 4,9106
1984 1984-02-15 6.64 3,5706
1985 1984-11-12 7.22 4,0906
1986 1986-02-28 8.61 5,3406
1987 1987-02-03 7.40 4,2506
1988 1988-01-16 7.81 4,6306
1989 1989-01-10 6.16 3,1406
1990 1990-02-10 6.12 3,0406
1991 1991-05-17 6.85 3,7606
1992 1992-02-22 5.06 2,1406
1993 1993-03-19 6.36 3,0206
1994 1993-12-12 6.33 2,9906
1995 1995-01-17 8.77 4,6806
1996 1996-02-10 9.08 4,9306
1997 1997-01-05 9.90 5,7406
1998 1998-02-27 6.88 3,0306
1999 1999-01-01 9.49 4,5006
2000 2000-01-18 10.70 5,4006
2001 2000-12-23 4.74 1,5606
2002 2001-12-19 6.97 2,8506
2003 2003-01-02 7.96 3,8406
2004 2004-01-05 7.59 3,5406
2005 2005-03-29 6.69 2,9006
2006 2006-01-13 11.60 5,1506
2007 2006-12-30 8.61 3,3906
2008 2008-02-06 9.00 3,6106
2009 2008-12-31 7.20 2,6106
2010 2010-04-02 7.66 2,8606
2011 2010-12-22 8.55 3,2006
2012 2012-04-05 11.69 5,3006
2013 2012-12-23 7.90 3,0606
2014 2014-02-16 9.57 3,9506
2015 2014-12-23 7.86 3,0406
2016 2015-12-23 9.97 4,1606
2017 2017-02-11 9.83 4,0906
2018 2018-01-28 5.63 1,8806
2019 2019-04-11 10.59 4,4806
2020 2020-01-16 6.98 2,5406
2021 2021-01-15 7.12 2,610
?
  Peak Gage-Height Qualification Codes.
?
  Peak Streamflow Qualification Codes.